Decoded Metar for CYOO ( in ) (IATA:) | Meteo·Mobile Aviation Weather
aviador You're here:

CYOO Decoded Metar

in
Report Time2019-01-19 02:33:00
UTC Time2019-01-19 02:57:29
Flight Rules mvfr MVFR
Wind310° at 09 kt
W.Decomp.*RWY 30: 8.9 kt HW 1.6 kt RCW
RWY 22: 9.0 kt RCW
W.Rank310° ranks 13
Current wind is below 310° avg. (9.5)
Visibility9999 m
Phenomena:Light Snow
Clouds:Broken 024 Hf
Broken 032 Hf
Overcast 041 Hf
Expected CloudBase > 1,600 ft AGL from Temp-Dew spread
Ceiling2,400 ft
Temp-4°C
Dew Point-8°C (74% RH)
AAT-10.1°C
QNH1022 hPa
Raw Report
SPECI CYOO 190233Z AUTO 31009KT 9SM -SN BKN024 BKN032 OVC041 M04/M08 A3019 RMK SLP233=

Extra information for CYOO:More info

Social comments